createdAt,value
2016-11-16T12:33:04.673Z,18.84
2016-11-16T12:33:30.339Z,18.94
2016-11-16T12:33:55.869Z,18.95
2016-11-16T12:34:21.408Z,19.14
2016-11-16T12:34:47.048Z,19.21
2016-11-16T12:35:12.715Z,19.17
2016-11-16T12:35:38.267Z,19.32
2016-11-16T12:36:03.818Z,19.35
2016-11-16T12:36:29.461Z,19.33
2016-11-16T12:36:55.000Z,19.42
2016-11-16T12:37:20.541Z,19.43
2016-11-16T12:37:46.076Z,19.43
2016-11-16T12:38:11.637Z,19.53
2016-11-16T12:38:37.291Z,19.33
2016-11-16T12:39:02.837Z,19.48
2016-11-16T12:39:28.541Z,19.42
2016-11-16T12:39:54.178Z,19.51
2016-11-16T12:40:19.682Z,19.5
2016-11-16T12:40:45.275Z,19.46
2016-11-16T12:41:10.975Z,19.5
2016-11-16T12:41:36.512Z,19.46
2016-11-16T12:42:02.066Z,19.5
2016-11-16T12:42:27.727Z,19.47
2016-11-16T12:42:53.325Z,19.53
2016-11-16T12:43:18.861Z,19.5
2016-11-16T12:43:44.446Z,19.5
2016-11-16T12:44:10.154Z,19.5
2016-11-16T12:44:35.706Z,19.54
2016-11-16T12:45:01.248Z,19.61
2016-11-16T12:45:26.861Z,19.61
2016-11-16T12:45:52.509Z,19.65
2016-11-16T12:46:18.061Z,19.66
2016-11-16T12:46:43.622Z,19.65
2016-11-16T12:47:09.221Z,19.63
2016-11-16T12:47:34.757Z,19.54
2016-11-16T12:48:00.309Z,19.7
2016-11-16T12:48:25.880Z,19.72
2016-11-16T12:48:51.424Z,19.69
2016-11-16T12:49:16.987Z,19.69
2016-11-16T12:49:42.727Z,19.66
2016-11-16T12:50:08.230Z,19.65
2016-11-16T12:50:33.802Z,19.61
2016-11-16T12:50:59.359Z,19.69
2016-11-16T12:51:24.910Z,19.66
2016-11-16T12:51:50.442Z,19.7
2016-11-16T12:52:16.004Z,19.54
2016-11-16T12:52:41.651Z,19.7
2016-11-16T12:53:07.183Z,19.68
2016-11-16T12:53:32.760Z,19.57
2016-11-16T12:53:58.284Z,19.7
2016-11-16T12:54:23.813Z,19.66
2016-11-16T12:54:49.345Z,19.78
2016-11-16T12:55:14.905Z,19.63
2016-11-16T12:55:40.469Z,19.68
2016-11-16T12:56:06.056Z,19.6
2016-11-16T12:56:31.607Z,19.7
2016-11-16T12:56:57.165Z,19.61
2016-11-16T12:57:22.700Z,19.65
2016-11-16T12:57:48.325Z,19.61
2016-11-16T12:58:13.865Z,19.68
2016-11-16T12:58:39.401Z,19.53
2016-11-16T12:59:04.936Z,19.54
2016-11-16T12:59:30.488Z,19.58
2016-11-16T12:59:56.540Z,19.51
2016-11-16T13:00:21.698Z,19.5
2016-11-16T13:00:47.269Z,19.51
2016-11-16T13:01:12.838Z,19.48
2016-11-16T13:01:38.392Z,19.48
2016-11-16T13:02:03.979Z,19.47
2016-11-16T13:02:29.544Z,19.48
2016-11-16T13:02:55.095Z,19.5
2016-11-16T13:03:20.703Z,19.47
2016-11-16T13:03:46.313Z,19.46
2016-11-16T13:04:11.872Z,19.48
2016-11-16T13:04:37.395Z,19.4
2016-11-16T13:05:02.979Z,19.42
2016-11-16T13:05:28.537Z,19.42
2016-11-16T13:05:54.074Z,19.42
2016-11-16T13:06:19.592Z,19.48
2016-11-16T13:06:45.130Z,19.46
2016-11-16T13:07:10.654Z,19.38
2016-11-16T13:08:18.961Z,19.4
2016-11-16T13:08:44.528Z,19.38
2016-11-16T13:09:10.173Z,19.35
2016-11-16T13:09:35.731Z,19.29
2016-11-16T13:10:01.267Z,19.47
2016-11-16T13:10:26.811Z,19.38
2016-11-16T13:10:52.354Z,19.4
2016-11-16T13:11:17.961Z,19.43
2016-11-16T13:11:43.544Z,19.43
2016-11-16T13:12:52.730Z,19.42
2016-11-16T13:14:59.101Z,19.42
2016-11-16T13:16:07.399Z,19.32
2016-11-16T13:16:32.949Z,19.29
2016-11-16T13:17:36.143Z,19.43
2016-11-16T13:18:01.751Z,19.42
2016-11-16T13:18:27.312Z,19.32
2016-11-16T13:18:52.861Z,19.31
2016-11-16T13:19:18.408Z,19.32
2016-11-16T13:19:44.020Z,19.31
2016-11-16T13:20:09.581Z,19.33
2016-11-16T13:20:35.135Z,19.32
2016-11-16T13:21:00.682Z,19.32
2016-11-16T13:21:26.234Z,19.33
2016-11-16T13:21:51.859Z,19.24
2016-11-16T13:22:17.481Z,19.32
2016-11-16T13:22:43.031Z,19.29
2016-11-16T13:23:08.587Z,19.21
2016-11-16T13:23:34.311Z,19.31
2016-11-16T13:23:59.886Z,19.28
2016-11-16T13:24:25.440Z,19.21
2016-11-16T13:24:51.004Z,19.25
2016-11-16T13:25:16.537Z,19.29
2016-11-16T13:25:42.084Z,19.25
2016-11-16T13:26:07.634Z,19.29
2016-11-16T13:26:33.170Z,19.21
2016-11-16T13:26:58.821Z,19.24
2016-11-16T13:27:24.362Z,19.21
2016-11-16T13:27:49.898Z,19.21
2016-11-16T13:28:37.770Z,19.21
2016-11-16T13:29:03.335Z,19.2
2016-11-16T13:29:29.025Z,19.18
2016-11-16T13:29:54.629Z,19.24
2016-11-16T13:30:20.175Z,19.2
2016-11-16T13:30:45.838Z,19.14
2016-11-16T13:31:11.431Z,19.24
2016-11-16T13:31:37.005Z,19.21
2016-11-16T13:32:02.577Z,19.14
2016-11-16T13:32:28.204Z,19.18
2016-11-16T13:32:53.743Z,19.2
2016-11-16T13:33:19.266Z,19.11
2016-11-16T13:33:45.118Z,19.14
2016-11-16T13:34:10.661Z,19.08
2016-11-16T13:34:36.226Z,19.18
2016-11-16T13:35:01.934Z,19.13
2016-11-16T13:35:27.460Z,19.13
2016-11-16T13:35:53.015Z,19.1
2016-11-16T13:36:18.566Z,19.11
2016-11-16T13:36:44.145Z,19.1
2016-11-16T13:37:09.681Z,19.13
2016-11-16T13:37:35.260Z,19.08
2016-11-16T13:38:00.812Z,19.1
2016-11-16T13:38:26.366Z,19.05
2016-11-16T13:38:52.062Z,19.01
2016-11-16T13:39:17.601Z,19.05
2016-11-16T13:39:43.148Z,18.98
2016-11-16T13:40:08.709Z,19.02
2016-11-16T13:40:34.246Z,19.06
2016-11-16T13:40:59.769Z,19.08
2016-11-16T13:41:25.333Z,19.01
2016-11-16T13:41:50.875Z,19.01
2016-11-16T13:42:16.423Z,19.02
2016-11-16T13:42:41.943Z,18.95
2016-11-16T13:43:07.580Z,18.99
2016-11-16T13:43:33.138Z,18.99
2016-11-16T13:43:58.712Z,18.99
2016-11-16T13:44:24.246Z,18.97
2016-11-16T13:44:49.951Z,18.97
2016-11-16T13:45:15.500Z,18.97
2016-11-16T13:46:08.526Z,18.92
2016-11-16T13:46:34.081Z,18.98
2016-11-16T13:46:59.724Z,18.9
2016-11-16T13:47:25.295Z,18.9
2016-11-16T13:47:50.855Z,19.02
2016-11-16T13:48:16.409Z,18.98
2016-11-16T13:48:41.980Z,18.99
2016-11-16T13:49:07.511Z,19.01
2016-11-16T13:49:33.160Z,19.02
2016-11-16T13:49:58.717Z,19.01
2016-11-16T13:50:24.269Z,19.06
2016-11-16T13:50:49.812Z,19.1
2016-11-16T13:51:15.369Z,19.08
2016-11-16T13:51:40.908Z,19.06
2016-11-16T13:52:06.455Z,19.02
2016-11-16T13:52:34.989Z,19.1
2016-11-16T13:53:00.558Z,19.06
2016-11-16T13:53:26.154Z,19.11
2016-11-16T13:53:51.791Z,19.14
2016-11-16T13:54:17.942Z,19.1
2016-11-16T13:54:43.991Z,18.99
2016-11-16T13:55:09.542Z,19.1
2016-11-16T13:55:35.119Z,19.13
2016-11-16T13:56:00.831Z,19.08
2016-11-16T13:56:26.383Z,19.13
2016-11-16T13:56:51.955Z,19.1
2016-11-16T13:57:17.540Z,19.13
2016-11-16T13:57:43.128Z,19.15
2016-11-16T13:58:08.733Z,19.2
2016-11-16T13:58:34.277Z,19.2
2016-11-16T13:58:59.837Z,19.17
2016-11-16T13:59:25.507Z,19.17
2016-11-16T13:59:51.090Z,19.15
2016-11-16T14:00:16.746Z,19.2
2016-11-16T14:00:42.331Z,19.18
2016-11-16T14:01:07.889Z,19.24
2016-11-16T14:01:33.450Z,19.23
2016-11-16T14:01:59.135Z,19.25
2016-11-16T14:02:24.678Z,19.23
2016-11-16T14:02:50.245Z,19.21
2016-11-16T14:03:15.832Z,19.2
2016-11-16T14:03:41.416Z,19.21
2016-11-16T14:04:06.976Z,19.2
2016-11-16T14:05:15.384Z,19.21
2016-11-16T14:05:41.059Z,19.25
2016-11-16T14:07:48.067Z,19.23
2016-11-16T14:08:22.021Z,19.18
2016-11-16T14:08:47.621Z,19.21
2016-11-16T14:09:13.173Z,19.31
2016-11-16T14:09:38.724Z,19.28
2016-11-16T14:10:04.284Z,19.23
2016-11-16T14:10:29.919Z,19.2
2016-11-16T14:10:55.466Z,19.17
2016-11-16T14:11:21.125Z,19.23
2016-11-16T14:11:46.682Z,19.24
2016-11-16T14:12:12.244Z,19.18
2016-11-16T14:12:37.823Z,19.2
2016-11-16T14:13:41.085Z,19.24
2016-11-16T14:14:06.705Z,19.23
2016-11-16T14:14:32.348Z,19.24
2016-11-16T14:14:57.915Z,19.25
2016-11-16T14:15:23.486Z,19.23
2016-11-16T14:15:52.508Z,19.24
2016-11-16T14:16:19.388Z,19.24
2016-11-16T14:16:44.983Z,19.21
2016-11-16T14:17:10.551Z,19.25
2016-11-16T14:17:36.118Z,19.2
2016-11-16T14:18:01.697Z,19.18
2016-11-16T14:18:27.236Z,19.21
2016-11-16T14:18:52.801Z,19.21
2016-11-16T14:19:18.353Z,19.25
2016-11-16T14:19:43.970Z,19.2
2016-11-16T14:20:09.535Z,19.2
2016-11-16T14:20:35.084Z,19.25
2016-11-16T14:21:00.660Z,19.18
2016-11-16T14:21:26.220Z,19.2
2016-11-16T14:21:51.777Z,19.24
2016-11-16T14:22:17.369Z,19.21
2016-11-16T14:22:42.974Z,19.21
2016-11-16T14:23:08.535Z,19.21
2016-11-16T14:23:34.113Z,19.18
2016-11-16T14:23:59.659Z,19.14
2016-11-16T14:24:25.266Z,19.21
2016-11-16T14:24:50.876Z,19.2
2016-11-16T14:25:16.440Z,19.11
2016-11-16T14:25:42.017Z,19.17
2016-11-16T14:26:07.603Z,19.2
2016-11-16T14:26:33.229Z,19.17
2016-11-16T14:26:58.782Z,19.21
2016-11-16T14:27:24.324Z,19.21
2016-11-16T14:27:49.876Z,19.17
2016-11-16T14:28:15.457Z,19.17
2016-11-16T14:28:41.009Z,19.23
2016-11-16T14:29:06.556Z,19.21
2016-11-16T14:29:32.143Z,19.18
2016-11-16T14:29:57.704Z,19.2
2016-11-16T14:30:23.359Z,19.15
2016-11-16T14:30:48.942Z,19.14
2016-11-16T14:31:14.492Z,19.13
2016-11-16T14:31:40.039Z,19.13
2016-11-16T14:32:05.617Z,19.1
2016-11-16T14:32:31.169Z,19.11
2016-11-16T14:32:56.727Z,19.21
2016-11-16T14:33:22.335Z,19.11
2016-11-16T14:33:47.935Z,19.1
2016-11-16T14:34:13.494Z,19.14
2016-11-16T14:34:39.070Z,19.1
2016-11-16T14:35:04.674Z,19.14
2016-11-16T14:35:30.236Z,19.1
2016-11-16T14:35:55.787Z,19.14
2016-11-16T14:36:21.422Z,19.14
2016-11-16T14:36:46.991Z,19.11
2016-11-16T14:37:12.624Z,19.15
2016-11-16T14:37:38.213Z,19.14
2016-11-16T14:38:03.763Z,19.13
2016-11-16T14:38:29.329Z,19.1
2016-11-16T14:38:55.055Z,19.11
2016-11-16T14:39:20.620Z,19.06
2016-11-16T14:39:46.174Z,19.11
2016-11-16T14:40:11.753Z,19.05
2016-11-16T14:40:37.370Z,19.05
2016-11-16T14:41:02.928Z,18.98
2016-11-16T14:41:28.496Z,19.02
2016-11-16T14:41:54.071Z,19.02
2016-11-16T14:42:19.631Z,19.06
2016-11-16T14:42:45.196Z,19.01
2016-11-16T14:43:11.787Z,19.05
2016-11-16T14:43:36.548Z,19.01
2016-11-16T14:44:02.090Z,18.99
2016-11-16T14:44:27.643Z,19.01
2016-11-16T14:44:53.528Z,19.01
2016-11-16T14:45:18.849Z,18.97
2016-11-16T14:45:44.410Z,19.01
2016-11-16T14:46:09.992Z,18.99
2016-11-16T14:46:35.565Z,18.95
2016-11-16T14:47:01.150Z,18.97
2016-11-16T14:47:26.701Z,18.99
2016-11-16T14:47:52.278Z,18.94
2016-11-16T14:48:17.852Z,18.99
2016-11-16T14:48:43.410Z,18.97
2016-11-16T14:49:08.973Z,18.97
2016-11-16T14:49:34.596Z,18.95
2016-11-16T14:50:00.163Z,18.99
2016-11-16T14:50:29.138Z,18.99
2016-11-16T14:51:31.834Z,19.01
2016-11-16T14:51:58.458Z,18.95
2016-11-16T14:52:24.026Z,18.94
2016-11-16T14:52:49.626Z,19.01
2016-11-16T14:53:15.218Z,18.99
2016-11-16T14:53:40.788Z,18.97
2016-11-16T14:54:06.356Z,18.97
2016-11-16T14:54:31.984Z,18.92
2016-11-16T14:54:57.562Z,18.95
2016-11-16T14:55:23.141Z,18.95
2016-11-16T14:55:48.733Z,19.02
2016-11-16T14:56:14.329Z,18.98
2016-11-16T14:56:39.857Z,18.95
2016-11-16T14:57:05.428Z,18.95
2016-11-16T14:57:31.010Z,18.97
2016-11-16T14:57:56.571Z,18.97
2016-11-16T14:58:22.118Z,18.98
2016-11-16T14:58:47.694Z,18.98
2016-11-16T14:59:13.285Z,18.91
2016-11-16T14:59:38.986Z,18.92
2016-11-16T15:00:32.049Z,18.92
2016-11-16T15:00:57.622Z,18.92
2016-11-16T15:01:23.288Z,18.92
2016-11-16T15:01:48.784Z,18.87
2016-11-16T15:02:14.344Z,18.92
2016-11-16T15:02:39.914Z,18.94
2016-11-16T15:03:05.478Z,18.94
2016-11-16T15:03:31.055Z,18.84
2016-11-16T15:03:56.603Z,18.97
2016-11-16T15:04:22.171Z,18.94
2016-11-16T15:04:47.731Z,18.94
2016-11-16T15:05:13.317Z,18.87
2016-11-16T15:05:38.923Z,18.9
2016-11-16T15:06:04.496Z,18.86
2016-11-16T15:06:30.064Z,18.91
2016-11-16T15:06:55.703Z,18.84
2016-11-16T15:07:21.303Z,18.83
2016-11-16T15:08:33.468Z,18.86
2016-11-16T15:08:58.936Z,18.8
2016-11-16T15:09:24.510Z,18.8
2016-11-16T15:09:50.077Z,18.74
2016-11-16T15:10:15.648Z,18.77
2016-11-16T15:10:41.239Z,18.8
2016-11-16T15:11:06.791Z,18.79
2016-11-16T15:11:32.376Z,18.79
2016-11-16T15:11:57.925Z,18.73
2016-11-16T15:12:23.490Z,18.79
2016-11-16T15:12:49.038Z,18.72
2016-11-16T15:13:14.605Z,18.7
2016-11-16T15:14:07.593Z,18.73
2016-11-16T15:14:33.147Z,18.68
2016-11-16T15:14:58.706Z,18.61
2016-11-16T15:15:24.248Z,18.64
2016-11-16T15:15:49.821Z,18.64
2016-11-16T15:16:15.392Z,18.64
2016-11-16T15:16:40.954Z,18.61
2016-11-16T15:17:06.512Z,18.62
2016-11-16T15:17:32.087Z,18.58
2016-11-16T15:17:57.652Z,18.61
2016-11-16T15:18:23.246Z,18.61
2016-11-16T15:18:48.798Z,18.58
2016-11-16T15:19:14.389Z,18.65
2016-11-16T15:19:39.938Z,18.61
2016-11-16T15:20:05.485Z,18.57
2016-11-16T15:20:31.070Z,18.57
2016-11-16T15:20:56.629Z,18.65
2016-11-16T15:21:22.228Z,18.58
2016-11-16T15:21:47.799Z,18.61
2016-11-16T15:22:13.363Z,18.65
2016-11-16T15:22:39.021Z,18.59
2016-11-16T15:23:05.100Z,18.64
2016-11-16T15:24:06.149Z,18.55
2016-11-16T15:24:32.148Z,18.58
2016-11-16T15:24:57.717Z,18.55
2016-11-16T15:25:23.295Z,18.57
2016-11-16T15:25:48.845Z,18.52
2016-11-16T15:26:14.395Z,18.54
2016-11-16T15:26:39.956Z,18.62
2016-11-16T15:27:05.500Z,18.54
2016-11-16T15:27:31.167Z,18.57
2016-11-16T15:27:56.705Z,18.5
2016-11-16T15:28:22.247Z,18.55
2016-11-16T15:28:47.805Z,18.52
2016-11-16T15:29:13.374Z,18.55
2016-11-16T15:29:38.922Z,18.5
2016-11-16T15:30:04.490Z,18.54
2016-11-16T15:30:30.031Z,18.55
2016-11-16T15:30:55.650Z,18.46
2016-11-16T15:31:21.186Z,18.47
